Time;durP1;ratioP1;P1;durP2;ratioP2;P2;SDS_P1;SDS_P2;PMS_P1;PMS_P2;Temp;Humidity;BMP_temperature;BMP_pressure;BME280_temperature;BME280_humidity;BME280_pressure;Samples;Min_cycle;Max_cycle;Signal;HPM_P1;HPM_P2
2023/04/09 00:02:36;;;;;;;37.07;24.70;;;;;4.90;101965.00;;;;9890885;29;20199;-77
2023/04/09 00:07:38;;;;;;;33.90;24.50;;;;;4.80;101951.00;;;;9901951;29;20746;-77
2023/04/09 00:12:40;;;;;;;34.60;25.27;;;;;4.70;101960.00;;;;9883316;29;20276;-77
2023/04/09 00:17:42;;;;;;;43.67;28.90;;;;;4.70;101955.00;;;;9853564;29;20232;-77
2023/04/09 00:22:44;;;;;;;39.10;26.70;;;;;4.60;101951.00;;;;9844694;30;20243;-77
2023/04/09 00:27:46;;;;;;;42.10;28.60;;;;;4.60;101950.00;;;;9845665;30;20331;-77
2023/04/09 00:32:48;;;;;;;39.43;27.97;;;;;4.50;101944.00;;;;9817477;30;20207;-77
2023/04/09 00:37:50;;;;;;;38.27;26.70;;;;;4.50;101944.00;;;;9889387;29;20231;-77
2023/04/09 00:42:52;;;;;;;40.93;27.53;;;;;4.40;101936.00;;;;9883102;29;20362;-77
2023/04/09 00:47:54;;;;;;;45.57;29.17;;;;;4.30;101933.00;;;;9882334;29;20763;-77
2023/04/09 00:52:56;;;;;;;41.73;27.17;;;;;4.20;101930.00;;;;9866594;29;20211;-77
2023/04/09 00:57:59;;;;;;;42.77;27.57;;;;;4.20;101932.00;;;;9851147;29;20239;-77
2023/04/09 01:03:03;;;;;;;40.40;26.73;;;;;4.10;101921.00;;;;9881502;29;20208;-77
2023/04/09 01:08:27;;;;;;;37.53;26.93;;;;;4.10;101928.00;;;;9850995;29;20215;-77
2023/04/09 01:13:51;;;;;;;36.57;25.70;;;;;4.00;101925.00;;;;9880747;29;20211;-77
2023/04/09 01:19:23;;;;;;;40.60;26.43;;;;;3.90;101911.00;;;;9858778;30;20231;-77
2023/04/09 01:25:12;;;;;;;37.53;24.63;;;;;3.90;101925.00;;;;9859619;30;20215;-77
2023/04/09 01:30:19;;;;;;;39.53;25.53;;;;;3.80;101919.00;;;;9767849;29;20211;-77
2023/04/09 01:35:22;;;;;;;42.13;26.97;;;;;3.80;101921.00;;;;9851284;29;20309;-77
2023/04/09 01:40:24;;;;;;;40.27;26.83;;;;;3.70;101921.00;;;;9850755;29;20304;-77
2023/04/09 01:45:26;;;;;;;38.10;26.73;;;;;3.70;101922.00;;;;9875849;29;20660;-77
2023/04/09 01:50:29;;;;;;;40.10;26.57;;;;;3.70;101921.00;;;;9880771;29;20731;-77
2023/04/09 01:55:31;;;;;;;41.70;27.07;;;;;3.70;101913.00;;;;9866436;29;20239;-77
2023/04/09 02:00:45;;;;;;;42.30;27.20;;;;;3.60;101920.00;;;;9875903;29;20208;-77
2023/04/09 02:06:35;;;;;;;42.07;27.57;;;;;3.60;101911.00;;;;9827880;30;20242;-77
2023/04/09 02:11:41;;;;;;;38.13;26.17;;;;;3.60;101912.00;;;;9845034;29;20315;-77
2023/04/09 02:16:43;;;;;;;40.63;26.03;;;;;3.50;101915.00;;;;9865093;29;20633;-77
2023/04/09 02:21:45;;;;;;;37.17;24.67;;;;;3.50;101918.00;;;;9864091;29;20243;-77
2023/04/09 02:26:47;;;;;;;36.03;25.13;;;;;3.50;101909.00;;;;9874362;29;20215;-77
2023/04/09 02:31:51;;;;;;;43.03;28.63;;;;;3.60;101903.00;;;;9827022;30;20659;-77
2023/04/09 02:36:53;;;;;;;49.03;28.83;;;;;3.70;101904.00;;;;9858423;29;20637;-77
2023/04/09 02:41:56;;;;;;;46.77;29.10;;;;;3.80;101897.00;;;;9821244;29;20672;-77
2023/04/09 02:47:01;;;;;;;57.03;33.63;;;;;3.90;101880.00;;;;9894262;29;20242;-77
2023/04/09 02:52:03;;;;;;;47.90;30.83;;;;;3.90;101882.00;;;;9877951;29;20196;-77
2023/04/09 02:57:05;;;;;;;44.33;28.50;;;;;3.90;101887.00;;;;9855866;29;20320;-77
2023/04/09 03:02:06;;;;;;;52.37;32.53;;;;;3.80;101883.00;;;;9898845;29;20198;-77
2023/04/09 03:07:09;;;;;;;54.67;33.53;;;;;3.80;101873.00;;;;9930245;29;20238;-77
2023/04/09 03:12:11;;;;;;;53.37;32.80;;;;;3.80;101865.00;;;;9867146;29;20214;-77
2023/04/09 03:17:13;;;;;;;51.50;32.83;;;;;3.80;101861.00;;;;9864584;29;20314;-77
2023/04/09 03:22:15;;;;;;;46.60;29.77;;;;;3.70;101864.00;;;;9876508;29;20234;-77
2023/04/09 03:27:17;;;;;;;46.97;29.53;;;;;3.60;101860.00;;;;9840384;30;20200;-77
2023/04/09 03:32:23;;;;;;;46.77;28.47;;;;;3.60;101860.00;;;;9857879;29;20296;-77
2023/04/09 03:37:25;;;;;;;53.33;29.73;;;;;3.50;101860.00;;;;9862948;29;20231;-77
2023/04/09 03:42:28;;;;;;;44.93;28.23;;;;;3.40;101848.00;;;;9834670;30;20802;-77
2023/04/09 03:47:32;;;;;;;42.90;26.73;;;;;3.40;101848.00;;;;9869308;29;20212;-77
2023/04/09 03:52:34;;;;;;;48.67;27.63;;;;;3.30;101841.00;;;;9868722;29;20212;-77
2023/04/09 03:57:40;;;;;;;44.90;28.40;;;;;3.30;101841.00;;;;9874713;29;20233;-77
2023/04/09 04:02:47;;;;;;;51.80;29.53;;;;;3.20;101841.00;;;;9905138;29;20238;-77
2023/04/09 04:07:50;;;;;;;47.47;28.93;;;;;3.20;101847.00;;;;9870343;30;20246;-77
2023/04/09 04:13:01;;;;;;;46.13;29.13;;;;;3.20;101839.00;;;;9883385;29;20310;-77
2023/04/09 04:18:10;;;;;;;52.87;29.80;;;;;3.10;101829.00;;;;9883104;29;20275;-77
2023/04/09 04:23:18;;;;;;;45.33;27.63;;;;;3.00;101824.00;;;;9832708;30;20216;-77
2023/04/09 04:28:33;;;;;;;48.83;29.67;;;;;3.00;101826.00;;;;9866108;29;20211;-77
2023/04/09 04:33:37;;;;;;;40.47;27.07;;;;;3.00;101826.00;;;;9873079;29;20214;-77
2023/04/09 04:38:44;;;;;;;49.27;29.90;;;;;2.90;101828.00;;;;9860638;30;20315;-77
2023/04/09 04:43:52;;;;;;;54.80;29.87;;;;;2.90;101836.00;;;;9843259;29;20251;-77
2023/04/09 04:48:56;;;;;;;53.77;29.60;;;;;2.90;101839.00;;;;9882212;29;20731;-77
2023/04/09 04:53:58;;;;;;;52.70;29.70;;;;;2.90;101840.00;;;;9882878;29;20208;-77
2023/04/09 04:59:01;;;;;;;51.53;29.10;;;;;2.90;101839.00;;;;9866913;29;20315;-77
2023/04/09 05:04:12;;;;;;;50.13;28.17;;;;;2.80;101842.00;;;;9854391;30;20681;-77
2023/04/09 05:09:15;;;;;;;56.30;29.97;;;;;2.80;101837.00;;;;9815825;30;20215;-77
2023/04/09 05:14:29;;;;;;;52.87;29.80;;;;;2.80;101840.00;;;;9880018;29;20203;-77
2023/04/09 05:19:31;;;;;;;57.53;31.03;;;;;2.90;101839.00;;;;9881096;29;20239;-77
2023/04/09 05:24:36;;;;;;;51.30;28.53;;;;;2.90;101843.00;;;;9865846;29;20282;-77
2023/04/09 05:29:39;;;;;;;59.70;30.43;;;;;3.00;101847.00;;;;9857631;29;20208;-77
2023/04/09 05:34:43;;;;;;;60.73;32.43;;;;;3.20;101844.00;;;;9844005;30;21016;-77
2023/04/09 05:39:45;;;;;;;63.53;32.20;;;;;3.50;101842.00;;;;9829552;30;20228;-77
2023/04/09 05:44:47;;;;;;;70.47;35.33;;;;;3.70;101841.00;;;;9846268;29;20665;-77
2023/04/09 05:49:53;;;;;;;64.07;34.87;;;;;4.00;101844.00;;;;9866191;29;20212;-77
2023/04/09 05:54:56;;;;;;;71.63;36.13;;;;;4.30;101853.00;;;;9866088;29;20631;-77
2023/04/09 06:00:07;;;;;;;63.63;34.63;;;;;4.70;101857.00;;;;9828004;30;20211;-77
2023/04/09 06:05:18;;;;;;;83.37;43.07;;;;;5.00;101855.00;;;;9845584;30;20370;-77
2023/04/09 06:10:23;;;;;;;96.97;45.37;;;;;5.40;101853.00;;;;9830064;30;20208;-77
2023/04/09 06:15:27;;;;;;;115.50;51.07;;;;;5.80;101857.00;;;;9868946;29;20600;-78
2023/04/09 06:20:29;;;;;;;107.90;50.23;;;;;6.20;101862.00;;;;9853506;29;20207;-78
2023/04/09 06:25:31;;;;;;;113.97;56.43;;;;;6.80;101876.00;;;;9880811;29;20207;-78
2023/04/09 06:30:35;;;;;;;100.43;50.27;;;;;7.40;101861.00;;;;9830986;30;20660;-78
2023/04/09 06:35:37;;;;;;;82.73;47.70;;;;;7.90;101872.00;;;;9844415;30;20212;-78
2023/04/09 06:40:39;;;;;;;82.67;45.70;;;;;8.40;101865.00;;;;9874748;29;20211;-78
2023/04/09 06:45:41;;;;;;;77.40;46.83;;;;;8.80;101885.00;;;;9883903;29;20219;-78
2023/04/09 06:50:44;;;;;;;69.90;43.70;;;;;9.10;101895.00;;;;9884234;29;20204;-78
2023/04/09 06:55:46;;;;;;;71.70;42.67;;;;;9.30;101895.00;;;;9854362;29;20747;-78
2023/04/09 07:00:48;;;;;;;68.07;42.97;;;;;9.60;101891.00;;;;9884157;29;20579;-78
2023/04/09 07:05:50;;;;;;;68.43;42.87;;;;;10.00;101893.00;;;;9845125;30;20719;-78
2023/04/09 07:10:53;;;;;;;61.87;40.40;;;;;10.30;101880.00;;;;9847109;30;20756;-78
2023/04/09 07:15:54;;;;;;;65.20;40.37;;;;;10.60;101877.00;;;;9867574;29;20675;-78
2023/04/09 07:20:56;;;;;;;56.57;39.20;;;;;10.80;101886.00;;;;9870658;29;20294;-78
2023/04/09 07:26:01;;;;;;;56.60;39.23;;;;;11.00;101883.00;;;;9873436;29;20218;-78
2023/04/09 07:31:03;;;;;;;57.47;36.53;;;;;11.20;101889.00;;;;9859161;29;20632;-78
2023/04/09 07:36:05;;;;;;;51.53;36.77;;;;;11.30;101897.00;;;;9884911;29;20216;-79
2023/04/09 07:41:09;;;;;;;56.87;36.60;;;;;11.70;101900.00;;;;9834829;30;20261;-79
2023/04/09 07:46:18;;;;;;;58.63;37.63;;;;;11.90;101890.00;;;;9901221;29;20218;-78
2023/04/09 07:51:21;;;;;;;50.63;35.20;;;;;12.40;101890.00;;;;9904957;29;20207;-78
2023/04/09 07:56:22;;;;;;;53.43;35.77;;;;;12.60;101889.00;;;;9857901;29;20227;-78
2023/04/09 08:01:25;;;;;;;49.80;34.10;;;;;12.90;101888.00;;;;9917836;29;20206;-78
2023/04/09 08:06:27;;;;;;;49.40;33.67;;;;;13.00;101885.00;;;;9861592;30;20208;-78
2023/04/09 08:11:29;;;;;;;49.70;33.43;;;;;13.20;101890.00;;;;9848469;30;20738;-78
2023/04/09 08:16:31;;;;;;;49.30;34.77;;;;;13.70;101888.00;;;;9855933;29;20874;-78
2023/04/09 08:21:35;;;;;;;46.83;33.23;;;;;14.10;101894.00;;;;9855370;30;20231;-78
2023/04/09 08:26:39;;;;;;;45.83;31.13;;;;;14.40;101888.00;;;;9855827;30;20664;-78
2023/04/09 08:31:41;;;;;;;43.60;31.77;;;;;14.80;101894.00;;;;9837599;30;20889;-79
2023/04/09 08:36:48;;;;;;;44.65;31.77;;;;;15.20;101888.00;;;;9854416;30;20220;-79
2023/04/09 08:41:58;;;;;;;41.17;31.33;;;;;15.50;101885.00;;;;9830956;30;20212;-77
2023/04/09 08:47:01;;;;;;;43.58;30.38;;;;;15.80;101890.00;;;;9833718;29;20776;-77
2023/04/09 08:52:05;;;;;;;41.95;30.33;;;;;16.00;101888.00;;;;9852197;29;20210;-77
2023/04/09 08:57:07;;;;;;;42.05;29.48;;;;;16.60;101888.00;;;;9868924;29;20235;-77
2023/04/09 09:02:10;;;;;;;40.15;29.55;;;;;17.10;101888.00;;;;9893867;29;20212;-77
2023/04/09 09:07:13;;;;;;;42.92;30.52;;;;;17.40;101883.00;;;;9851335;29;20211;-77
2023/04/09 09:12:39;;;;;;;39.35;28.35;;;;;17.70;101873.00;;;;9860250;29;20208;-77
2023/04/09 09:17:55;;;;;;;34.08;26.30;;;;;18.00;101884.00;;;;9846266;30;20235;-76
2023/04/09 09:22:58;;;;;;;35.53;27.15;;;;;18.30;101881.00;;;;9843478;30;20212;-77
2023/04/09 09:28:08;;;;;;;36.92;27.20;;;;;18.60;101881.00;;;;9831771;29;20539;-78
2023/04/09 09:33:12;;;;;;;34.35;26.45;;;;;18.90;101870.00;;;;9848124;30;20202;-77
2023/04/09 09:38:15;;;;;;;35.85;26.70;;;;;19.10;101875.00;;;;9833737;30;20232;-77
2023/04/09 09:43:17;;;;;;;32.42;26.48;;;;;19.20;101860.00;;;;9858902;29;20257;-78
2023/04/09 09:48:19;;;;;;;34.65;25.88;;;;;19.30;101860.00;;;;10234580;24;20635;-77
2023/04/09 09:53:23;;;;;;;30.00;23.48;;;;;19.80;101853.00;;;;9866041;29;20241;-76
2023/04/09 09:58:34;;;;;;;31.67;26.13;;;;;20.20;101841.00;;;;10107313;24;20235;-82
2023/04/09 10:03:38;;;;;;;29.35;23.27;;;;;20.20;101847.00;;;;9868805;29;20226;-82
2023/04/09 10:08:41;;;;;;;26.95;22.10;;;;;20.40;101838.00;;;;9902634;29;20244;-83
2023/04/09 10:13:50;;;;;;;28.50;22.63;;;;;20.70;101832.00;;;;9864903;30;20222;-83
2023/04/09 10:18:56;;;;;;;28.50;23.58;;;;;21.00;101832.00;;;;9900351;29;20223;-81
2023/04/09 10:23:59;;;;;;;24.08;21.52;;;;;21.20;101824.00;;;;9888032;29;20227;-81
2023/04/09 10:29:14;;;;;;;25.02;19.77;;;;;21.40;101818.00;;;;9863764;29;20211;-81
2023/04/09 10:34:19;;;;;;;22.45;19.08;;;;;21.80;101800.00;;;;9841118;30;20306;-81
2023/04/09 10:39:26;;;;;;;27.15;21.25;;;;;22.40;101791.00;;;;9839678;29;20253;-81
2023/04/09 10:44:31;;;;;;;26.88;20.88;;;;;22.40;101797.00;;;;9910929;29;20829;-81
2023/04/09 10:49:41;;;;;;;23.88;19.95;;;;;22.60;101794.00;;;;9888693;29;20204;-80
2023/04/09 10:54:45;;;;;;;25.27;20.10;;;;;22.60;101794.00;;;;9870956;29;20227;-81
2023/04/09 10:59:50;;;;;;;22.27;19.73;;;;;22.40;101786.00;;;;9852246;30;20255;-80
2023/04/09 11:05:10;;;;;;;24.98;20.10;;;;;22.80;101790.00;;;;9855534;29;20208;-82
2023/04/09 11:10:12;;;;;;;25.33;18.85;;;;;23.10;101777.00;;;;9896371;29;20211;-80
2023/04/09 11:15:17;;;;;;;21.25;17.55;;;;;23.50;101775.00;;;;9856331;29;20238;-82
2023/04/09 11:20:21;;;;;;;23.27;19.83;;;;;22.80;101777.00;;;;9857341;29;20231;-81
2023/04/09 11:25:25;;;;;;;23.25;18.42;;;;;21.40;101772.00;;;;9856534;29;20219;-82
2023/04/09 11:30:27;;;;;;;24.85;17.77;;;;;19.80;101769.00;;;;9840210;29;20306;-80
2023/04/09 11:35:33;;;;;;;25.75;19.13;;;;;18.70;101751.00;;;;9902505;29;20212;-81
2023/04/09 11:40:35;;;;;;;25.13;18.77;;;;;20.10;101750.00;;;;9855359;29;20240;-80
2023/04/09 11:45:38;;;;;;;21.63;17.73;;;;;19.60;101748.00;;;;9884840;29;20203;-80
2023/04/09 11:50:40;;;;;;;19.67;15.70;;;;;21.40;101737.00;;;;9839361;29;20315;-81
2023/04/09 11:55:42;;;;;;;23.02;17.98;;;;;21.90;101744.00;;;;9840545;30;20215;-81
2023/04/09 12:00:44;;;;;;;19.60;16.00;;;;;22.50;101758.00;;;;9830530;30;20243;-81
2023/04/09 12:05:47;;;;;;;19.30;15.52;;;;;20.40;101749.00;;;;9878331;29;20200;-80
2023/04/09 12:10:52;;;;;;;18.65;15.45;;;;;19.70;101739.00;;;;9890972;29;20211;-80
2023/04/09 12:15:55;;;;;;;17.52;14.30;;;;;21.90;101732.00;;;;9861277;29;20208;-81
2023/04/09 12:20:57;;;;;;;18.42;14.43;;;;;20.60;101737.00;;;;9840506;29;20569;-81
2023/04/09 12:26:00;;;;;;;17.25;13.48;;;;;19.80;101735.00;;;;9847646;29;20287;-81
2023/04/09 12:31:03;;;;;;;17.67;12.85;;;;;21.40;101732.00;;;;9876587;29;20199;-81
2023/04/09 12:36:05;;;;;;;16.23;12.93;;;;;23.20;101732.00;;;;9866151;29;20693;-82
2023/04/09 12:41:08;;;;;;;17.20;13.02;;;;;22.40;101735.00;;;;9892900;29;20272;-81
2023/04/09 12:46:10;;;;;;;17.00;13.88;;;;;22.70;101729.00;;;;9852127;29;20303;-81
2023/04/09 12:51:14;;;;;;;16.50;13.85;;;;;23.70;101718.00;;;;9860894;29;20206;-81
2023/04/09 12:56:17;;;;;;;16.90;12.90;;;;;23.80;101718.00;;;;9875416;29;20230;-81
2023/04/09 13:01:19;;;;;;;12.75;11.23;;;;;22.00;101718.00;;;;9866589;29;20207;-81
2023/04/09 13:06:21;;;;;;;14.60;11.48;;;;;23.00;101700.00;;;;9890068;29;20742;-82
2023/04/09 13:11:23;;;;;;;12.85;11.32;;;;;23.80;101709.00;;;;9914361;29;20210;-83
2023/04/09 13:16:25;;;;;;;10.93;9.00;;;;;25.50;101687.00;;;;9859032;29;20231;-81
2023/04/09 13:21:27;;;;;;;12.32;9.73;;;;;27.20;101697.00;;;;9867624;30;20212;-83
2023/04/09 13:26:31;;;;;;;13.43;10.95;;;;;28.00;101690.00;;;;9857089;30;20212;-83
2023/04/09 13:31:35;;;;;;;12.65;10.05;;;;;26.90;101700.00;;;;9833565;29;20250;-82
2023/04/09 13:36:37;;;;;;;12.75;10.43;;;;;23.50;101691.00;;;;9874313;29;20230;-82
2023/04/09 13:41:39;;;;;;;11.38;10.18;;;;;27.40;101669.00;;;;9871754;29;20219;-82
2023/04/09 13:46:41;;;;;;;10.02;8.70;;;;;28.90;101671.00;;;;9854478;29;20204;-82
2023/04/09 13:51:44;;;;;;;11.98;8.85;;;;;29.20;101667.00;;;;9877056;29;20204;-82
2023/04/09 13:56:45;;;;;;;14.20;9.45;;;;;30.00;101663.00;;;;9852708;29;20227;-82
2023/04/09 14:01:47;;;;;;;11.98;8.25;;;;;30.80;101652.00;;;;9844709;29;21437;-82
2023/04/09 14:06:50;;;;;;;10.88;8.90;;;;;30.90;101646.00;;;;9840204;29;20212;-82
2023/04/09 14:11:53;;;;;;;11.70;8.75;;;;;31.20;101640.00;;;;9860326;29;20242;-82
2023/04/09 14:16:55;;;;;;;12.07;8.68;;;;;31.50;101625.00;;;;9869420;29;20224;-82
2023/04/09 14:21:58;;;;;;;10.15;8.43;;;;;31.50;101619.00;;;;9858061;29;20274;-82
2023/04/09 14:27:01;;;;;;;9.63;7.32;;;;;30.30;101630.00;;;;9859514;29;20230;-83
2023/04/09 14:32:03;;;;;;;12.35;9.18;;;;;29.60;101622.00;;;;9826781;29;20278;-83
2023/04/09 14:37:05;;;;;;;11.40;9.43;;;;;28.60;101608.00;;;;9859030;29;20752;-83
2023/04/09 14:42:07;;;;;;;11.90;8.63;;;;;29.60;101591.00;;;;9841782;29;20210;-83
2023/04/09 14:47:10;;;;;;;11.23;8.88;;;;;27.30;101605.00;;;;9834407;29;20710;-82
2023/04/09 14:52:12;;;;;;;11.52;9.45;;;;;28.30;101573.00;;;;9854062;29;20211;-82
2023/04/09 14:57:14;;;;;;;10.40;8.52;;;;;28.50;101570.00;;;;9883667;29;20281;-82
2023/04/09 15:02:16;;;;;;;9.43;8.07;;;;;27.80;101575.00;;;;9887663;29;20587;-82
2023/04/09 15:07:18;;;;;;;8.15;7.35;;;;;26.00;101587.00;;;;9842774;29;20203;-82
2023/04/09 15:12:20;;;;;;;9.73;8.13;;;;;26.10;101591.00;;;;9820026;29;20340;-81
2023/04/09 15:17:23;;;;;;;8.00;6.55;;;;;25.10;101578.00;;;;9820192;29;20231;-81
2023/04/09 15:22:25;;;;;;;8.05;7.03;;;;;22.90;101591.00;;;;9852729;29;20218;-81
2023/04/09 15:27:27;;;;;;;8.75;6.85;;;;;20.50;101596.00;;;;9830957;29;20207;-81
2023/04/09 15:32:29;;;;;;;8.80;6.45;;;;;19.80;101590.00;;;;9812681;29;20245;-81
2023/04/09 15:37:32;;;;;;;8.65;6.88;;;;;19.40;101567.00;;;;9816937;29;20231;-81
2023/04/09 15:42:34;;;;;;;7.35;5.57;;;;;19.50;101584.00;;;;9844096;29;20579;-82
2023/04/09 15:47:36;;;;;;;6.13;5.53;;;;;19.90;101580.00;;;;9835702;29;21087;-81
2023/04/09 15:52:38;;;;;;;7.95;5.70;;;;;19.80;101577.00;;;;9831594;29;20211;-83
2023/04/09 15:57:45;;;;;;;6.57;5.00;;;;;19.90;101576.00;;;;9864882;29;20227;-81
2023/04/09 16:02:47;;;;;;;5.47;4.97;;;;;19.70;101571.00;;;;9834048;29;20194;-83
2023/04/09 16:07:50;;;;;;;7.30;5.53;;;;;19.40;101565.00;;;;9851082;29;20235;-82
2023/04/09 16:12:52;;;;;;;6.60;5.18;;;;;19.50;101564.00;;;;9853086;29;20798;-82
2023/04/09 16:17:55;;;;;;;8.93;5.68;;;;;19.00;101558.00;;;;9897585;29;20258;-82
2023/04/09 16:22:57;;;;;;;5.10;4.47;;;;;18.70;101542.00;;;;9897428;29;20199;-82
2023/04/09 16:27:59;;;;;;;6.90;4.55;;;;;18.60;101548.00;;;;9881997;29;20196;-83
2023/04/09 16:33:01;;;;;;;6.63;4.80;;;;;18.60;101551.00;;;;9882527;29;20605;-83
2023/04/09 16:38:05;;;;;;;5.90;5.15;;;;;18.20;101548.00;;;;9902315;29;20290;-82
2023/04/09 16:43:07;;;;;;;5.90;5.05;;;;;17.80;101542.00;;;;9876490;29;20208;-82
2023/04/09 16:48:10;;;;;;;5.68;4.70;;;;;17.30;101535.00;;;;9890430;29;20271;-82
2023/04/09 16:53:13;;;;;;;7.15;5.65;;;;;16.90;101533.00;;;;9896839;29;20211;-81
2023/04/09 16:58:15;;;;;;;8.20;4.70;;;;;16.80;101534.00;;;;9904074;29;20223;-82
2023/04/09 17:03:17;;;;;;;6.95;4.53;;;;;16.50;101537.00;;;;9843618;29;20220;-82
2023/04/09 17:08:26;;;;;;;6.40;4.65;;;;;16.20;101530.00;;;;9871940;29;20222;-81
2023/04/09 17:13:33;;;;;;;6.78;4.78;;;;;15.90;101540.00;;;;9888626;29;20204;-83
2023/04/09 17:18:35;;;;;;;4.80;4.30;;;;;15.70;101538.00;;;;9859194;29;20231;-82
2023/04/09 17:23:37;;;;;;;5.53;4.90;;;;;15.60;101533.00;;;;9858490;29;20211;-81
2023/04/09 17:28:40;;;;;;;6.63;5.00;;;;;15.40;101531.00;;;;9887663;29;20215;-81
2023/04/09 17:33:46;;;;;;;6.15;4.90;;;;;15.20;101530.00;;;;9861087;29;20219;-81
2023/04/09 17:38:50;;;;;;;7.05;4.88;;;;;15.10;101525.00;;;;9821160;30;20647;-83
2023/04/09 17:43:53;;;;;;;5.18;4.50;;;;;14.90;101529.00;;;;9866241;29;20204;-81
2023/04/09 17:48:55;;;;;;;7.28;5.53;;;;;14.60;101524.00;;;;9889576;29;20802;-82
2023/04/09 17:53:57;;;;;;;7.05;6.07;;;;;14.40;101530.00;;;;9872804;29;20211;-82
2023/04/09 17:58:59;;;;;;;7.77;4.97;;;;;14.20;101527.00;;;;9888680;29;20227;-82
2023/04/09 18:04:01;;;;;;;6.13;5.10;;;;;14.00;101530.00;;;;9864410;30;20231;-81
2023/04/09 18:09:04;;;;;;;6.90;5.33;;;;;13.80;101528.00;;;;9873939;29;20217;-81
2023/04/09 18:14:06;;;;;;;6.70;5.60;;;;;13.60;101530.00;;;;9874310;29;20953;-82
2023/04/09 18:19:10;;;;;;;9.20;7.17;;;;;13.50;101542.00;;;;9850504;30;20712;-82
2023/04/09 18:24:12;;;;;;;10.40;7.40;;;;;13.30;101549.00;;;;9822032;30;20204;-81
2023/04/09 18:29:14;;;;;;;6.50;5.17;;;;;13.10;101542.00;;;;9848039;29;20212;-84
2023/04/09 18:34:16;;;;;;;5.60;4.87;;;;;13.00;101556.00;;;;9898149;29;20210;-81
2023/04/09 18:39:21;;;;;;;6.53;5.30;;;;;12.80;101556.00;;;;9883047;29;20331;-84
2023/04/09 18:44:23;;;;;;;8.20;5.30;;;;;12.70;101555.00;;;;9872525;29;20409;-83
2023/04/09 18:49:26;;;;;;;9.40;5.70;;;;;12.50;101559.00;;;;9869264;29;20264;-83
2023/04/09 18:54:28;;;;;;;7.37;5.53;;;;;12.40;101558.00;;;;9886877;29;20195;-83
2023/04/09 18:59:32;;;;;;;6.63;5.27;;;;;12.30;101556.00;;;;9839322;29;20219;-84
2023/04/09 19:04:35;;;;;;;7.80;6.20;;;;;12.20;101553.00;;;;9857022;29;20801;-83
2023/04/09 19:09:38;;;;;;;8.13;6.30;;;;;12.00;101552.00;;;;9883119;29;20199;-84
2023/04/09 19:14:40;;;;;;;6.33;5.40;;;;;11.90;101555.00;;;;9861551;30;20207;-84
2023/04/09 19:19:42;;;;;;;9.70;6.80;;;;;11.70;101559.00;;;;9848302;30;20884;-84
2023/04/09 19:24:44;;;;;;;8.40;5.93;;;;;11.60;101567.00;;;;9850338;29;20652;-84
2023/04/09 19:29:46;;;;;;;6.03;5.07;;;;;11.50;101551.00;;;;9871958;29;20216;-83
2023/04/09 19:34:48;;;;;;;7.40;6.37;;;;;11.30;101564.00;;;;9854375;29;20669;-83
2023/04/09 19:39:51;;;;;;;7.97;6.03;;;;;11.20;101561.00;;;;9859883;29;20251;-84
2023/04/09 19:44:53;;;;;;;6.87;5.63;;;;;11.10;101555.00;;;;9830144;30;20209;-83
2023/04/09 19:49:55;;;;;;;9.30;6.33;;;;;11.00;101561.00;;;;9867323;29;20227;-83
2023/04/09 19:54:57;;;;;;;9.90;6.07;;;;;11.00;101558.00;;;;9879440;29;20208;-83
2023/04/09 19:59:59;;;;;;;9.17;7.53;;;;;11.00;101564.00;;;;9867511;29;20298;-83
2023/04/09 20:05:01;;;;;;;9.47;7.47;;;;;11.10;101559.00;;;;9869953;29;20267;-84
2023/04/09 20:10:04;;;;;;;10.73;7.93;;;;;11.20;101559.00;;;;9868507;29;20204;-83
2023/04/09 20:15:07;;;;;;;11.00;7.27;;;;;11.30;101552.00;;;;9891320;29;20196;-83
2023/04/09 20:20:11;;;;;;;9.50;7.40;;;;;11.30;101550.00;;;;9905941;29;20223;-83
2023/04/09 20:25:13;;;;;;;9.80;7.90;;;;;11.30;101540.00;;;;9909437;29;20211;-83
2023/04/09 20:30:15;;;;;;;10.80;7.83;;;;;11.20;101535.00;;;;9905606;29;20212;-84
2023/04/09 20:35:17;;;;;;;8.97;7.20;;;;;11.30;101523.00;;;;9857675;29;20227;-84
2023/04/09 20:40:20;;;;;;;10.33;7.43;;;;;11.20;101522.00;;;;9867620;30;20244;-83
2023/04/09 20:45:22;;;;;;;11.50;8.07;;;;;11.10;101518.00;;;;9888495;29;20204;-84
2023/04/09 20:50:24;;;;;;;11.00;8.70;;;;;11.00;101524.00;;;;9850780;29;20258;-83
2023/04/09 20:55:26;;;;;;;12.87;9.37;;;;;10.90;101528.00;;;;9889965;29;20228;-84
2023/04/09 21:00:28;;;;;;;12.00;9.17;;;;;10.80;101523.00;;;;9874115;29;20247;-84
2023/04/09 21:05:31;;;;;;;10.50;8.83;;;;;10.80;101524.00;;;;9838183;29;20204;-82
2023/04/09 21:10:33;;;;;;;10.60;8.70;;;;;10.70;101523.00;;;;9875300;29;20264;-83
2023/04/09 21:15:35;;;;;;;11.47;9.47;;;;;10.70;101524.00;;;;9860440;29;20211;-83
2023/04/09 21:20:42;;;;;;;10.93;8.50;;;;;10.70;101518.00;;;;9898922;29;20226;-82
2023/04/09 21:25:44;;;;;;;13.53;10.07;;;;;10.70;101520.00;;;;9895657;29;20241;-83
2023/04/09 21:30:46;;;;;;;15.03;9.10;;;;;10.70;101517.00;;;;9880061;29;20215;-83
2023/04/09 21:35:52;;;;;;;12.40;9.37;;;;;10.60;101515.00;;;;9867003;29;20207;-83
2023/04/09 21:40:54;;;;;;;10.63;8.23;;;;;10.70;101510.00;;;;9851322;29;20473;-84
2023/04/09 21:45:56;;;;;;;11.60;8.53;;;;;10.60;101502.00;;;;9873771;29;20250;-81
2023/04/09 21:50:58;;;;;;;12.13;9.03;;;;;10.60;101510.00;;;;9862713;29;20268;-83
2023/04/09 21:56:01;;;;;;;11.33;8.90;;;;;10.50;101507.00;;;;9862404;29;20219;-83
2023/04/09 22:01:05;;;;;;;12.17;9.07;;;;;10.40;101514.00;;;;9859448;29;20227;-84
2023/04/09 22:06:19;;;;;;;9.57;8.00;;;;;10.40;101519.00;;;;9856935;29;20192;-83
2023/04/09 22:11:26;;;;;;;14.10;9.30;;;;;10.40;101507.00;;;;9878662;29;20234;-83
2023/04/09 22:16:29;;;;;;;12.10;8.70;;;;;10.40;101503.00;;;;9867501;29;20219;-82
2023/04/09 22:21:31;;;;;;;14.07;9.63;;;;;10.40;101516.00;;;;9851087;29;20253;-83
2023/04/09 22:26:33;;;;;;;11.80;9.03;;;;;10.50;101520.00;;;;9853264;29;20204;-83
2023/04/09 22:31:35;;;;;;;11.97;9.43;;;;;10.50;101534.00;;;;9870636;29;20243;-83
2023/04/09 22:36:37;;;;;;;13.13;9.37;;;;;10.40;101521.00;;;;9866763;29;20711;-83
2023/04/09 22:41:40;;;;;;;14.57;10.30;;;;;10.30;101524.00;;;;9841916;29;20315;-84
2023/04/09 22:46:42;;;;;;;15.67;11.00;;;;;10.30;101528.00;;;;9909321;29;20472;-83
2023/04/09 22:51:44;;;;;;;15.70;10.50;;;;;10.20;101539.00;;;;9850846;29;20527;-82
2023/04/09 22:56:47;;;;;;;14.63;10.47;;;;;10.10;101536.00;;;;9825431;29;20213;-83
2023/04/09 23:01:49;;;;;;;15.07;9.73;;;;;10.10;101538.00;;;;9842081;29;20238;-84
2023/04/09 23:06:52;;;;;;;13.93;10.20;;;;;10.00;101548.00;;;;9879380;29;20647;-83
2023/04/09 23:11:55;;;;;;;12.33;9.70;;;;;10.00;101551.00;;;;9863608;29;20653;-82
2023/04/09 23:16:57;;;;;;;14.63;10.03;;;;;10.00;101546.00;;;;9832109;30;20299;-84
2023/04/09 23:22:00;;;;;;;13.93;9.20;;;;;9.90;101529.00;;;;9847809;30;20231;-83
2023/04/09 23:27:02;;;;;;;13.13;9.10;;;;;9.80;101511.00;;;;9846323;30;20250;-83
2023/04/09 23:32:04;;;;;;;10.87;8.93;;;;;9.80;101498.00;;;;9868589;29;20235;-83
2023/04/09 23:37:06;;;;;;;11.70;8.97;;;;;9.80;101494.00;;;;9852537;29;20195;-84
2023/04/09 23:42:08;;;;;;;11.90;9.03;;;;;9.80;101499.00;;;;9852958;29;20226;-84
2023/04/09 23:47:12;;;;;;;12.43;9.37;;;;;9.80;101498.00;;;;9887663;29;20282;-83
2023/04/09 23:52:14;;;;;;;15.13;10.50;;;;;9.70;101498.00;;;;9888949;29;20261;-83
2023/04/09 23:57:17;;;;;;;12.63;9.00;;;;;9.60;101484.00;;;;9869867;29;20207;-84
